Weather at Fort Wayne International Airport

Public forecast

Using degrees Fahrenheit for public forecast. Weather courtesy of forecast.io.

Current aviation weather report (METAR) for Fort Wayne International Airport

2024/05/28 21:54 (retrieved 37 minutes ago)

KFWA 282154Z 29010G17KT 10SM SCT048 SCT250 22/12 A2995 RMK AO2 SLP140 T02220122

Aviation forecast (TAF) for Fort Wayne International Airport

2024/05/28 20:30 Ammendment (retrieved 2 hours ago)

TAF AMD KFWA 282027Z 2820/2918 29008KT P6SM VCSH SCT050 BKN080 FM290100 32010KT 6SM -SHRA BR BKN050 TEMPO 2901/2904 3SM -TSRA BR BKN025CB OVC050 FM290600 33004KT P6SM -SHRA SCT007 BKN015